sensor_id;sensor_type;location;lat;lon;timestamp;temperature;humidity
13754;DHT22;6948;51.216;6.778;2023-04-08T00:00:36;9.20;99.90
13754;DHT22;6948;51.216;6.778;2023-04-08T00:03:02;9.20;99.90
13754;DHT22;6948;51.216;6.778;2023-04-08T00:05:28;9.20;99.90
13754;DHT22;6948;51.216;6.778;2023-04-08T00:07:54;9.20;99.90
13754;DHT22;6948;51.216;6.778;2023-04-08T00:10:19;9.30;99.90
13754;DHT22;6948;51.216;6.778;2023-04-08T00:12:46;9.30;99.90
13754;DHT22;6948;51.216;6.778;2023-04-08T00:15:12;9.30;99.90
13754;DHT22;6948;51.216;6.778;2023-04-08T00:17:37;9.30;99.90
13754;DHT22;6948;51.216;6.778;2023-04-08T00:20:03;9.20;99.90
13754;DHT22;6948;51.216;6.778;2023-04-08T00:22:29;9.20;99.90
13754;DHT22;6948;51.216;6.778;2023-04-08T00:24:56;9.30;99.90
13754;DHT22;6948;51.216;6.778;2023-04-08T00:27:22;9.40;99.90
13754;DHT22;6948;51.216;6.778;2023-04-08T00:29:50;9.40;99.90
13754;DHT22;6948;51.216;6.778;2023-04-08T00:32:15;9.40;99.90
13754;DHT22;6948;51.216;6.778;2023-04-08T00:34:41;9.30;99.90
13754;DHT22;6948;51.216;6.778;2023-04-08T00:37:07;9.30;99.90
13754;DHT22;6948;51.216;6.778;2023-04-08T00:39:33;9.40;99.90
13754;DHT22;6948;51.216;6.778;2023-04-08T00:41:59;9.40;99.90
13754;DHT22;6948;51.216;6.778;2023-04-08T00:44:26;9.40;99.90
13754;DHT22;6948;51.216;6.778;2023-04-08T00:46:52;9.50;99.90
13754;DHT22;6948;51.216;6.778;2023-04-08T00:49:18;9.40;99.90
13754;DHT22;6948;51.216;6.778;2023-04-08T00:51:43;9.40;99.90
13754;DHT22;6948;51.216;6.778;2023-04-08T00:54:10;9.40;99.90
13754;DHT22;6948;51.216;6.778;2023-04-08T00:56:35;9.40;99.90
13754;DHT22;6948;51.216;6.778;2023-04-08T00:59:02;9.40;99.90
13754;DHT22;6948;51.216;6.778;2023-04-08T01:07:12;9.40;99.90
13754;DHT22;6948;51.216;6.778;2023-04-08T01:09:46;9.50;99.90
13754;DHT22;6948;51.216;6.778;2023-04-08T01:12:18;9.50;99.90
13754;DHT22;6948;51.216;6.778;2023-04-08T01:14:46;9.40;99.90
13754;DHT22;6948;51.216;6.778;2023-04-08T01:17:14;9.40;99.90
13754;DHT22;6948;51.216;6.778;2023-04-08T01:19:43;9.30;99.90
13754;DHT22;6948;51.216;6.778;2023-04-08T01:22:18;9.40;99.90
13754;DHT22;6948;51.216;6.778;2023-04-08T01:24:49;9.40;99.90
13754;DHT22;6948;51.216;6.778;2023-04-08T01:27:16;9.30;99.90
13754;DHT22;6948;51.216;6.778;2023-04-08T01:29:43;9.40;99.90
13754;DHT22;6948;51.216;6.778;2023-04-08T01:32:11;9.40;99.90
13754;DHT22;6948;51.216;6.778;2023-04-08T01:34:38;9.40;99.90
13754;DHT22;6948;51.216;6.778;2023-04-08T01:37:05;9.40;99.90
13754;DHT22;6948;51.216;6.778;2023-04-08T01:39:32;9.40;99.90
13754;DHT22;6948;51.216;6.778;2023-04-08T01:41:59;9.40;99.90
13754;DHT22;6948;51.216;6.778;2023-04-08T01:44:27;9.50;99.90
13754;DHT22;6948;51.216;6.778;2023-04-08T01:46:54;9.50;99.90
13754;DHT22;6948;51.216;6.778;2023-04-08T01:49:21;9.50;99.90
13754;DHT22;6948;51.216;6.778;2023-04-08T01:51:48;9.50;99.90
13754;DHT22;6948;51.216;6.778;2023-04-08T01:54:14;9.50;99.90
13754;DHT22;6948;51.216;6.778;2023-04-08T01:56:41;9.60;99.90
13754;DHT22;6948;51.216;6.778;2023-04-08T01:59:12;9.60;99.90
13754;DHT22;6948;51.216;6.778;2023-04-08T02:01:39;9.60;99.90
13754;DHT22;6948;51.216;6.778;2023-04-08T02:04:06;9.60;99.90
13754;DHT22;6948;51.216;6.778;2023-04-08T02:06:32;9.60;99.90
13754;DHT22;6948;51.216;6.778;2023-04-08T02:08:59;9.60;99.90
13754;DHT22;6948;51.216;6.778;2023-04-08T02:11:25;9.60;99.90
13754;DHT22;6948;51.216;6.778;2023-04-08T02:13:52;9.60;99.90
13754;DHT22;6948;51.216;6.778;2023-04-08T02:16:22;9.60;99.90
13754;DHT22;6948;51.216;6.778;2023-04-08T02:18:57;9.60;99.90
13754;DHT22;6948;51.216;6.778;2023-04-08T02:21:46;9.60;99.90
13754;DHT22;6948;51.216;6.778;2023-04-08T02:24:13;9.70;99.90
13754;DHT22;6948;51.216;6.778;2023-04-08T02:26:43;9.80;99.90
13754;DHT22;6948;51.216;6.778;2023-04-08T02:29:12;9.80;99.90
13754;DHT22;6948;51.216;6.778;2023-04-08T02:31:41;9.90;99.90
13754;DHT22;6948;51.216;6.778;2023-04-08T02:34:08;9.90;99.90
13754;DHT22;6948;51.216;6.778;2023-04-08T02:36:35;9.80;99.90
13754;DHT22;6948;51.216;6.778;2023-04-08T02:39:02;9.80;99.90
13754;DHT22;6948;51.216;6.778;2023-04-08T02:41:28;9.80;99.90
13754;DHT22;6948;51.216;6.778;2023-04-08T02:43:55;9.70;99.90
13754;DHT22;6948;51.216;6.778;2023-04-08T02:46:20;9.80;99.90
13754;DHT22;6948;51.216;6.778;2023-04-08T02:48:46;9.70;99.90
13754;DHT22;6948;51.216;6.778;2023-04-08T02:51:12;9.70;99.90
13754;DHT22;6948;51.216;6.778;2023-04-08T02:53:38;9.70;99.90
13754;DHT22;6948;51.216;6.778;2023-04-08T02:56:04;9.60;99.90
13754;DHT22;6948;51.216;6.778;2023-04-08T02:58:30;9.50;99.90
13754;DHT22;6948;51.216;6.778;2023-04-08T03:00:55;9.60;99.90
13754;DHT22;6948;51.216;6.778;2023-04-08T03:03:21;9.60;99.90
13754;DHT22;6948;51.216;6.778;2023-04-08T03:05:53;9.50;99.90
13754;DHT22;6948;51.216;6.778;2023-04-08T03:08:19;9.60;99.90
13754;DHT22;6948;51.216;6.778;2023-04-08T03:10:44;9.60;99.90
13754;DHT22;6948;51.216;6.778;2023-04-08T03:13:10;9.60;99.90
13754;DHT22;6948;51.216;6.778;2023-04-08T03:15:36;9.60;99.90
13754;DHT22;6948;51.216;6.778;2023-04-08T03:18:03;9.50;99.90
13754;DHT22;6948;51.216;6.778;2023-04-08T03:20:29;9.50;99.90
13754;DHT22;6948;51.216;6.778;2023-04-08T03:22:54;9.50;99.90
13754;DHT22;6948;51.216;6.778;2023-04-08T03:25:20;9.50;99.90
13754;DHT22;6948;51.216;6.778;2023-04-08T03:27:46;9.50;99.90
13754;DHT22;6948;51.216;6.778;2023-04-08T03:30:11;9.50;99.90
13754;DHT22;6948;51.216;6.778;2023-04-08T03:32:37;9.50;99.90
13754;DHT22;6948;51.216;6.778;2023-04-08T03:35:04;9.50;99.90
13754;DHT22;6948;51.216;6.778;2023-04-08T03:37:30;9.60;99.90
13754;DHT22;6948;51.216;6.778;2023-04-08T03:39:55;9.60;99.90
13754;DHT22;6948;51.216;6.778;2023-04-08T03:42:21;9.70;99.90
13754;DHT22;6948;51.216;6.778;2023-04-08T03:44:47;9.60;99.90
13754;DHT22;6948;51.216;6.778;2023-04-08T03:47:12;9.60;99.90
13754;DHT22;6948;51.216;6.778;2023-04-08T03:49:38;9.70;99.90
13754;DHT22;6948;51.216;6.778;2023-04-08T03:52:04;9.70;99.90
13754;DHT22;6948;51.216;6.778;2023-04-08T03:54:29;9.70;99.90
13754;DHT22;6948;51.216;6.778;2023-04-08T03:56:55;9.70;99.90
13754;DHT22;6948;51.216;6.778;2023-04-08T03:59:20;9.60;99.90
13754;DHT22;6948;51.216;6.778;2023-04-08T04:01:46;9.60;99.90
13754;DHT22;6948;51.216;6.778;2023-04-08T04:04:12;9.50;99.90
13754;DHT22;6948;51.216;6.778;2023-04-08T04:06:38;9.50;99.90
13754;DHT22;6948;51.216;6.778;2023-04-08T04:09:03;9.50;99.90
13754;DHT22;6948;51.216;6.778;2023-04-08T04:11:29;9.50;99.90
13754;DHT22;6948;51.216;6.778;2023-04-08T04:13:55;9.60;99.90
13754;DHT22;6948;51.216;6.778;2023-04-08T04:16:21;9.60;99.90
13754;DHT22;6948;51.216;6.778;2023-04-08T04:18:46;9.60;99.90
13754;DHT22;6948;51.216;6.778;2023-04-08T04:21:12;9.70;99.90
13754;DHT22;6948;51.216;6.778;2023-04-08T04:23:37;9.70;99.90
13754;DHT22;6948;51.216;6.778;2023-04-08T04:26:08;9.60;99.90
13754;DHT22;6948;51.216;6.778;2023-04-08T04:28:34;9.60;99.90
13754;DHT22;6948;51.216;6.778;2023-04-08T04:31:00;9.60;99.90
13754;DHT22;6948;51.216;6.778;2023-04-08T04:33:26;9.60;99.90
13754;DHT22;6948;51.216;6.778;2023-04-08T04:35:52;9.50;99.90
13754;DHT22;6948;51.216;6.778;2023-04-08T04:38:17;9.40;99.90
13754;DHT22;6948;51.216;6.778;2023-04-08T04:40:43;9.40;99.90
13754;DHT22;6948;51.216;6.778;2023-04-08T04:43:09;9.40;99.90
13754;DHT22;6948;51.216;6.778;2023-04-08T04:45:35;9.30;99.90
13754;DHT22;6948;51.216;6.778;2023-04-08T04:48:00;9.30;99.90
13754;DHT22;6948;51.216;6.778;2023-04-08T04:50:27;9.30;99.90
13754;DHT22;6948;51.216;6.778;2023-04-08T04:52:53;9.30;99.90
13754;DHT22;6948;51.216;6.778;2023-04-08T04:55:19;9.40;99.90
13754;DHT22;6948;51.216;6.778;2023-04-08T04:57:47;9.40;99.90
13754;DHT22;6948;51.216;6.778;2023-04-08T05:00:13;9.50;99.90
13754;DHT22;6948;51.216;6.778;2023-04-08T05:02:39;9.60;99.90
13754;DHT22;6948;51.216;6.778;2023-04-08T05:05:05;9.60;99.90
13754;DHT22;6948;51.216;6.778;2023-04-08T05:07:31;9.70;99.90
13754;DHT22;6948;51.216;6.778;2023-04-08T05:09:59;9.70;99.90
13754;DHT22;6948;51.216;6.778;2023-04-08T05:12:26;9.70;99.90
13754;DHT22;6948;51.216;6.778;2023-04-08T05:14:51;9.80;99.90
13754;DHT22;6948;51.216;6.778;2023-04-08T05:17:17;9.70;99.90
13754;DHT22;6948;51.216;6.778;2023-04-08T05:19:42;9.70;99.90
13754;DHT22;6948;51.216;6.778;2023-04-08T05:22:08;9.70;99.90
13754;DHT22;6948;51.216;6.778;2023-04-08T05:24:34;9.70;99.90
13754;DHT22;6948;51.216;6.778;2023-04-08T05:27:00;9.70;99.90
13754;DHT22;6948;51.216;6.778;2023-04-08T05:29:26;9.60;99.90
13754;DHT22;6948;51.216;6.778;2023-04-08T05:31:52;9.60;99.90
13754;DHT22;6948;51.216;6.778;2023-04-08T05:34:17;9.60;99.90
13754;DHT22;6948;51.216;6.778;2023-04-08T05:36:48;9.50;99.90
13754;DHT22;6948;51.216;6.778;2023-04-08T05:39:17;9.50;99.90
13754;DHT22;6948;51.216;6.778;2023-04-08T05:41:43;9.50;99.90
13754;DHT22;6948;51.216;6.778;2023-04-08T05:44:09;9.50;99.90
13754;DHT22;6948;51.216;6.778;2023-04-08T05:46:36;9.40;99.90
13754;DHT22;6948;51.216;6.778;2023-04-08T05:49:02;9.40;99.90
13754;DHT22;6948;51.216;6.778;2023-04-08T05:51:27;9.40;99.90
13754;DHT22;6948;51.216;6.778;2023-04-08T05:53:53;9.40;99.90
13754;DHT22;6948;51.216;6.778;2023-04-08T05:56:19;9.40;99.90
13754;DHT22;6948;51.216;6.778;2023-04-08T05:58:45;9.40;99.90
13754;DHT22;6948;51.216;6.778;2023-04-08T06:01:11;9.40;99.90
13754;DHT22;6948;51.216;6.778;2023-04-08T06:03:36;9.50;99.90
13754;DHT22;6948;51.216;6.778;2023-04-08T06:06:02;9.50;99.90
13754;DHT22;6948;51.216;6.778;2023-04-08T06:08:28;9.50;99.90
13754;DHT22;6948;51.216;6.778;2023-04-08T06:10:54;9.50;99.90
13754;DHT22;6948;51.216;6.778;2023-04-08T06:13:20;9.60;99.90
13754;DHT22;6948;51.216;6.778;2023-04-08T06:15:46;9.60;99.90
13754;DHT22;6948;51.216;6.778;2023-04-08T06:18:14;9.60;99.90
13754;DHT22;6948;51.216;6.778;2023-04-08T06:20:40;9.70;99.90
13754;DHT22;6948;51.216;6.778;2023-04-08T06:23:06;9.70;99.90
13754;DHT22;6948;51.216;6.778;2023-04-08T06:25:32;9.70;99.90
13754;DHT22;6948;51.216;6.778;2023-04-08T06:27:58;9.70;99.90
13754;DHT22;6948;51.216;6.778;2023-04-08T06:30:23;9.70;99.90
13754;DHT22;6948;51.216;6.778;2023-04-08T06:32:49;9.80;99.90
13754;DHT22;6948;51.216;6.778;2023-04-08T06:35:15;9.70;99.90
13754;DHT22;6948;51.216;6.778;2023-04-08T06:37:41;9.80;99.90
13754;DHT22;6948;51.216;6.778;2023-04-08T06:40:07;9.80;99.90
13754;DHT22;6948;51.216;6.778;2023-04-08T06:42:32;9.90;99.90
13754;DHT22;6948;51.216;6.778;2023-04-08T06:44:58;10.00;99.90
13754;DHT22;6948;51.216;6.778;2023-04-08T06:47:24;10.00;99.90
13754;DHT22;6948;51.216;6.778;2023-04-08T06:49:50;9.90;99.90
13754;DHT22;6948;51.216;6.778;2023-04-08T06:52:16;9.90;99.90
13754;DHT22;6948;51.216;6.778;2023-04-08T06:54:41;9.90;99.90
13754;DHT22;6948;51.216;6.778;2023-04-08T06:57:07;9.90;99.90
13754;DHT22;6948;51.216;6.778;2023-04-08T06:59:33;9.90;99.90
13754;DHT22;6948;51.216;6.778;2023-04-08T07:01:59;9.90;99.90
13754;DHT22;6948;51.216;6.778;2023-04-08T07:04:24;9.90;99.90
13754;DHT22;6948;51.216;6.778;2023-04-08T07:06:51;9.70;99.90
13754;DHT22;6948;51.216;6.778;2023-04-08T07:09:16;9.60;99.90
13754;DHT22;6948;51.216;6.778;2023-04-08T07:11:42;9.60;99.90
13754;DHT22;6948;51.216;6.778;2023-04-08T07:14:08;9.60;99.90
13754;DHT22;6948;51.216;6.778;2023-04-08T07:16:33;9.50;99.90
13754;DHT22;6948;51.216;6.778;2023-04-08T07:18:59;9.50;99.90
13754;DHT22;6948;51.216;6.778;2023-04-08T07:21:25;9.60;99.90
13754;DHT22;6948;51.216;6.778;2023-04-08T07:23:51;9.60;99.90
13754;DHT22;6948;51.216;6.778;2023-04-08T07:26:17;9.70;99.90
13754;DHT22;6948;51.216;6.778;2023-04-08T07:28:43;9.80;99.90
13754;DHT22;6948;51.216;6.778;2023-04-08T07:31:15;10.00;99.90
13754;DHT22;6948;51.216;6.778;2023-04-08T07:33:41;10.00;99.90
13754;DHT22;6948;51.216;6.778;2023-04-08T07:36:09;10.00;99.90
13754;DHT22;6948;51.216;6.778;2023-04-08T07:38:35;9.90;99.90
13754;DHT22;6948;51.216;6.778;2023-04-08T07:41:01;9.80;99.90
13754;DHT22;6948;51.216;6.778;2023-04-08T07:43:26;9.80;99.90
13754;DHT22;6948;51.216;6.778;2023-04-08T07:45:52;9.70;99.90
13754;DHT22;6948;51.216;6.778;2023-04-08T07:48:17;9.60;99.90
13754;DHT22;6948;51.216;6.778;2023-04-08T07:50:43;9.60;99.90
13754;DHT22;6948;51.216;6.778;2023-04-08T07:53:10;9.70;99.90
13754;DHT22;6948;51.216;6.778;2023-04-08T07:55:36;9.60;99.90
13754;DHT22;6948;51.216;6.778;2023-04-08T07:58:03;9.60;99.90
13754;DHT22;6948;51.216;6.778;2023-04-08T08:00:29;9.60;99.90
13754;DHT22;6948;51.216;6.778;2023-04-08T08:02:55;9.70;99.90
13754;DHT22;6948;51.216;6.778;2023-04-08T08:05:21;9.70;99.90
13754;DHT22;6948;51.216;6.778;2023-04-08T08:07:47;9.70;99.90
13754;DHT22;6948;51.216;6.778;2023-04-08T08:10:12;9.60;99.90
13754;DHT22;6948;51.216;6.778;2023-04-08T08:12:38;9.60;99.90
13754;DHT22;6948;51.216;6.778;2023-04-08T08:15:04;9.50;99.90
13754;DHT22;6948;51.216;6.778;2023-04-08T08:17:30;9.40;99.90
13754;DHT22;6948;51.216;6.778;2023-04-08T08:19:58;9.40;99.90
13754;DHT22;6948;51.216;6.778;2023-04-08T08:22:24;9.40;99.90
13754;DHT22;6948;51.216;6.778;2023-04-08T08:24:55;9.50;99.90
13754;DHT22;6948;51.216;6.778;2023-04-08T08:27:21;9.50;99.90
13754;DHT22;6948;51.216;6.778;2023-04-08T08:29:47;9.50;99.90
13754;DHT22;6948;51.216;6.778;2023-04-08T08:32:12;9.50;99.90
13754;DHT22;6948;51.216;6.778;2023-04-08T08:34:38;9.60;99.90
13754;DHT22;6948;51.216;6.778;2023-04-08T08:37:03;9.60;99.90
13754;DHT22;6948;51.216;6.778;2023-04-08T08:39:29;9.60;99.90
13754;DHT22;6948;51.216;6.778;2023-04-08T08:41:55;9.60;99.90
13754;DHT22;6948;51.216;6.778;2023-04-08T08:44:21;9.70;99.90
13754;DHT22;6948;51.216;6.778;2023-04-08T08:46:47;9.70;99.90
13754;DHT22;6948;51.216;6.778;2023-04-08T08:49:13;9.70;99.90
13754;DHT22;6948;51.216;6.778;2023-04-08T08:51:40;9.70;99.90
13754;DHT22;6948;51.216;6.778;2023-04-08T08:54:06;9.70;99.90
13754;DHT22;6948;51.216;6.778;2023-04-08T08:56:33;9.60;99.90
13754;DHT22;6948;51.216;6.778;2023-04-08T08:58:59;9.50;99.90
13754;DHT22;6948;51.216;6.778;2023-04-08T09:01:35;9.50;99.90
13754;DHT22;6948;51.216;6.778;2023-04-08T09:04:19;9.60;99.90
13754;DHT22;6948;51.216;6.778;2023-04-08T09:06:48;9.50;99.90
13754;DHT22;6948;51.216;6.778;2023-04-08T09:09:16;9.80;99.90
13754;DHT22;6948;51.216;6.778;2023-04-08T09:11:44;10.00;99.90
13754;DHT22;6948;51.216;6.778;2023-04-08T09:16:55;9.70;99.90
13754;DHT22;6948;51.216;6.778;2023-04-08T09:19:21;9.60;99.90
13754;DHT22;6948;51.216;6.778;2023-04-08T09:22:05;9.70;99.90
13754;DHT22;6948;51.216;6.778;2023-04-08T09:24:32;9.60;99.90
13754;DHT22;6948;51.216;6.778;2023-04-08T09:26:57;9.60;99.90
13754;DHT22;6948;51.216;6.778;2023-04-08T09:29:24;9.60;99.90
13754;DHT22;6948;51.216;6.778;2023-04-08T09:31:55;9.70;99.90
13754;DHT22;6948;51.216;6.778;2023-04-08T09:34:22;9.80;99.90
13754;DHT22;6948;51.216;6.778;2023-04-08T09:36:49;9.80;99.90
13754;DHT22;6948;51.216;6.778;2023-04-08T09:39:15;9.90;99.90
13754;DHT22;6948;51.216;6.778;2023-04-08T09:41:42;10.00;99.90
13754;DHT22;6948;51.216;6.778;2023-04-08T09:44:10;10.00;99.90
13754;DHT22;6948;51.216;6.778;2023-04-08T09:47:01;10.10;99.90
13754;DHT22;6948;51.216;6.778;2023-04-08T09:49:45;10.00;99.90
13754;DHT22;6948;51.216;6.778;2023-04-08T09:55:02;10.20;99.90
13754;DHT22;6948;51.216;6.778;2023-04-08T09:57:50;10.40;99.90
13754;DHT22;6948;51.216;6.778;2023-04-08T10:00:18;10.40;99.90
13754;DHT22;6948;51.216;6.778;2023-04-08T10:02:56;10.30;99.90
13754;DHT22;6948;51.216;6.778;2023-04-08T10:05:24;10.30;99.90
13754;DHT22;6948;51.216;6.778;2023-04-08T10:07:50;10.40;99.90
13754;DHT22;6948;51.216;6.778;2023-04-08T10:10:16;10.30;99.90
13754;DHT22;6948;51.216;6.778;2023-04-08T10:12:42;10.30;99.90
13754;DHT22;6948;51.216;6.778;2023-04-08T10:15:26;10.30;99.90
13754;DHT22;6948;51.216;6.778;2023-04-08T10:17:53;10.30;99.90
13754;DHT22;6948;51.216;6.778;2023-04-08T10:23:17;10.30;99.90
13754;DHT22;6948;51.216;6.778;2023-04-08T10:30:57;10.40;99.90
13754;DHT22;6948;51.216;6.778;2023-04-08T10:38:43;10.40;99.90
13754;DHT22;6948;51.216;6.778;2023-04-08T10:41:11;10.30;99.90
13754;DHT22;6948;51.216;6.778;2023-04-08T10:43:38;10.40;99.90
13754;DHT22;6948;51.216;6.778;2023-04-08T10:46:04;10.40;99.90
13754;DHT22;6948;51.216;6.778;2023-04-08T10:48:30;10.50;99.90
13754;DHT22;6948;51.216;6.778;2023-04-08T10:50:57;10.60;99.90
13754;DHT22;6948;51.216;6.778;2023-04-08T10:53:26;10.70;99.90
13754;DHT22;6948;51.216;6.778;2023-04-08T10:55:53;10.80;99.90
13754;DHT22;6948;51.216;6.778;2023-04-08T10:58:18;10.90;99.90
13754;DHT22;6948;51.216;6.778;2023-04-08T11:00:44;10.90;99.90
13754;DHT22;6948;51.216;6.778;2023-04-08T11:03:10;10.90;99.90
13754;DHT22;6948;51.216;6.778;2023-04-08T11:05:37;10.90;99.90
13754;DHT22;6948;51.216;6.778;2023-04-08T11:08:04;11.10;99.90
13754;DHT22;6948;51.216;6.778;2023-04-08T11:10:30;11.20;99.90
13754;DHT22;6948;51.216;6.778;2023-04-08T11:12:57;11.30;99.90
13754;DHT22;6948;51.216;6.778;2023-04-08T11:15:24;11.40;99.90
13754;DHT22;6948;51.216;6.778;2023-04-08T11:17:50;11.50;99.90
13754;DHT22;6948;51.216;6.778;2023-04-08T11:20:16;11.50;99.90
13754;DHT22;6948;51.216;6.778;2023-04-08T11:22:43;11.50;99.90
13754;DHT22;6948;51.216;6.778;2023-04-08T11:25:10;11.60;99.90
13754;DHT22;6948;51.216;6.778;2023-04-08T11:27:36;11.60;99.90
13754;DHT22;6948;51.216;6.778;2023-04-08T11:30:03;11.60;99.90
13754;DHT22;6948;51.216;6.778;2023-04-08T11:32:30;11.60;99.90
13754;DHT22;6948;51.216;6.778;2023-04-08T11:34:59;11.70;99.90
13754;DHT22;6948;51.216;6.778;2023-04-08T11:37:26;11.70;99.90
13754;DHT22;6948;51.216;6.778;2023-04-08T11:39:53;11.80;99.90
13754;DHT22;6948;51.216;6.778;2023-04-08T11:42:29;11.80;99.90
13754;DHT22;6948;51.216;6.778;2023-04-08T11:44:56;11.80;99.90
13754;DHT22;6948;51.216;6.778;2023-04-08T11:47:28;11.90;99.90
13754;DHT22;6948;51.216;6.778;2023-04-08T11:49:54;12.20;99.90
13754;DHT22;6948;51.216;6.778;2023-04-08T11:52:20;12.30;99.90
13754;DHT22;6948;51.216;6.778;2023-04-08T11:54:47;12.40;99.90
13754;DHT22;6948;51.216;6.778;2023-04-08T11:57:13;12.60;99.90
13754;DHT22;6948;51.216;6.778;2023-04-08T11:59:40;12.60;99.90
13754;DHT22;6948;51.216;6.778;2023-04-08T12:02:05;12.50;99.90
13754;DHT22;6948;51.216;6.778;2023-04-08T12:04:32;12.50;99.90
13754;DHT22;6948;51.216;6.778;2023-04-08T12:06:58;12.50;99.90
13754;DHT22;6948;51.216;6.778;2023-04-08T12:09:24;12.70;99.90
13754;DHT22;6948;51.216;6.778;2023-04-08T12:11:49;12.70;99.90
13754;DHT22;6948;51.216;6.778;2023-04-08T12:14:15;12.50;99.90
13754;DHT22;6948;51.216;6.778;2023-04-08T12:16:40;12.40;99.90
13754;DHT22;6948;51.216;6.778;2023-04-08T12:19:06;12.40;99.90
13754;DHT22;6948;51.216;6.778;2023-04-08T12:21:32;12.30;99.90
13754;DHT22;6948;51.216;6.778;2023-04-08T12:23:58;12.30;99.90
13754;DHT22;6948;51.216;6.778;2023-04-08T12:26:24;12.40;99.90
13754;DHT22;6948;51.216;6.778;2023-04-08T12:28:51;12.40;99.90
13754;DHT22;6948;51.216;6.778;2023-04-08T12:31:17;12.30;99.90
13754;DHT22;6948;51.216;6.778;2023-04-08T12:33:43;12.20;99.90
13754;DHT22;6948;51.216;6.778;2023-04-08T12:36:08;12.10;99.90
13754;DHT22;6948;51.216;6.778;2023-04-08T12:38:34;11.90;99.90
13754;DHT22;6948;51.216;6.778;2023-04-08T12:41:00;11.80;99.90
13754;DHT22;6948;51.216;6.778;2023-04-08T12:43:25;11.60;99.90
13754;DHT22;6948;51.216;6.778;2023-04-08T12:45:51;11.60;99.90
13754;DHT22;6948;51.216;6.778;2023-04-08T12:48:17;11.60;99.90
13754;DHT22;6948;51.216;6.778;2023-04-08T12:50:43;11.80;99.90
13754;DHT22;6948;51.216;6.778;2023-04-08T12:53:09;11.80;99.90
13754;DHT22;6948;51.216;6.778;2023-04-08T12:55:35;12.00;99.90
13754;DHT22;6948;51.216;6.778;2023-04-08T12:58:01;12.00;99.90
13754;DHT22;6948;51.216;6.778;2023-04-08T13:00:27;11.90;99.90
13754;DHT22;6948;51.216;6.778;2023-04-08T13:02:52;11.80;99.90
13754;DHT22;6948;51.216;6.778;2023-04-08T13:05:18;12.00;99.90
13754;DHT22;6948;51.216;6.778;2023-04-08T13:07:44;12.00;99.90
13754;DHT22;6948;51.216;6.778;2023-04-08T13:10:10;11.80;99.90
13754;DHT22;6948;51.216;6.778;2023-04-08T13:12:36;11.90;99.90
13754;DHT22;6948;51.216;6.778;2023-04-08T13:15:05;12.00;99.90
13754;DHT22;6948;51.216;6.778;2023-04-08T13:17:31;12.10;99.90
13754;DHT22;6948;51.216;6.778;2023-04-08T13:19:56;12.30;99.90
13754;DHT22;6948;51.216;6.778;2023-04-08T13:22:22;12.20;99.90
13754;DHT22;6948;51.216;6.778;2023-04-08T13:24:48;12.20;99.90
13754;DHT22;6948;51.216;6.778;2023-04-08T13:27:13;12.30;99.90
13754;DHT22;6948;51.216;6.778;2023-04-08T13:29:39;12.30;99.90
13754;DHT22;6948;51.216;6.778;2023-04-08T13:32:05;12.30;99.90
13754;DHT22;6948;51.216;6.778;2023-04-08T13:34:30;12.30;99.90
13754;DHT22;6948;51.216;6.778;2023-04-08T13:36:56;12.30;99.90
13754;DHT22;6948;51.216;6.778;2023-04-08T13:39:22;12.20;99.90
13754;DHT22;6948;51.216;6.778;2023-04-08T13:41:48;12.10;99.90
13754;DHT22;6948;51.216;6.778;2023-04-08T13:44:13;12.10;99.90
13754;DHT22;6948;51.216;6.778;2023-04-08T13:46:39;12.20;99.90
13754;DHT22;6948;51.216;6.778;2023-04-08T13:49:05;12.30;99.90
13754;DHT22;6948;51.216;6.778;2023-04-08T13:51:31;12.30;99.90
13754;DHT22;6948;51.216;6.778;2023-04-08T13:53:56;12.50;99.90
13754;DHT22;6948;51.216;6.778;2023-04-08T13:56:22;12.50;99.90
13754;DHT22;6948;51.216;6.778;2023-04-08T13:58:47;12.70;99.90
13754;DHT22;6948;51.216;6.778;2023-04-08T14:01:13;12.80;99.90
13754;DHT22;6948;51.216;6.778;2023-04-08T14:03:39;13.00;99.90
13754;DHT22;6948;51.216;6.778;2023-04-08T14:06:05;13.00;99.90
13754;DHT22;6948;51.216;6.778;2023-04-08T14:08:31;12.80;99.90
13754;DHT22;6948;51.216;6.778;2023-04-08T14:10:57;12.80;99.90
13754;DHT22;6948;51.216;6.778;2023-04-08T14:13:22;12.80;99.90
13754;DHT22;6948;51.216;6.778;2023-04-08T14:15:48;12.60;99.90
13754;DHT22;6948;51.216;6.778;2023-04-08T14:18:14;12.50;99.90
13754;DHT22;6948;51.216;6.778;2023-04-08T14:20:44;12.50;99.90
13754;DHT22;6948;51.216;6.778;2023-04-08T14:23:09;12.60;99.90
13754;DHT22;6948;51.216;6.778;2023-04-08T14:25:35;12.80;99.90
13754;DHT22;6948;51.216;6.778;2023-04-08T14:28:04;12.80;99.90
13754;DHT22;6948;51.216;6.778;2023-04-08T14:30:30;12.90;99.90
13754;DHT22;6948;51.216;6.778;2023-04-08T14:32:56;13.00;99.90
13754;DHT22;6948;51.216;6.778;2023-04-08T14:35:23;13.20;99.90
13754;DHT22;6948;51.216;6.778;2023-04-08T14:37:49;13.20;99.90
13754;DHT22;6948;51.216;6.778;2023-04-08T14:40:14;13.20;99.90
13754;DHT22;6948;51.216;6.778;2023-04-08T14:42:40;13.10;99.90
13754;DHT22;6948;51.216;6.778;2023-04-08T14:45:07;13.00;99.90
13754;DHT22;6948;51.216;6.778;2023-04-08T14:47:32;13.00;99.90
13754;DHT22;6948;51.216;6.778;2023-04-08T14:49:58;13.10;99.90
13754;DHT22;6948;51.216;6.778;2023-04-08T14:52:24;13.10;99.90
13754;DHT22;6948;51.216;6.778;2023-04-08T14:54:49;12.90;99.90
13754;DHT22;6948;51.216;6.778;2023-04-08T14:57:15;12.80;99.90
13754;DHT22;6948;51.216;6.778;2023-04-08T14:59:41;12.70;99.90
13754;DHT22;6948;51.216;6.778;2023-04-08T15:02:07;12.70;99.90
13754;DHT22;6948;51.216;6.778;2023-04-08T15:04:32;12.70;99.90
13754;DHT22;6948;51.216;6.778;2023-04-08T15:06:58;12.70;99.90
13754;DHT22;6948;51.216;6.778;2023-04-08T15:09:24;12.80;99.90
13754;DHT22;6948;51.216;6.778;2023-04-08T15:11:49;13.00;99.90
13754;DHT22;6948;51.216;6.778;2023-04-08T15:14:15;13.00;99.90
13754;DHT22;6948;51.216;6.778;2023-04-08T15:16:41;12.90;99.90
13754;DHT22;6948;51.216;6.778;2023-04-08T15:19:06;12.80;99.90
13754;DHT22;6948;51.216;6.778;2023-04-08T15:21:32;12.60;99.90
13754;DHT22;6948;51.216;6.778;2023-04-08T15:23:58;12.60;99.90
13754;DHT22;6948;51.216;6.778;2023-04-08T15:26:24;12.50;99.90
13754;DHT22;6948;51.216;6.778;2023-04-08T15:28:50;12.50;99.90
13754;DHT22;6948;51.216;6.778;2023-04-08T15:31:16;12.50;99.90
13754;DHT22;6948;51.216;6.778;2023-04-08T15:33:42;12.60;99.90
13754;DHT22;6948;51.216;6.778;2023-04-08T15:36:10;12.50;99.90
13754;DHT22;6948;51.216;6.778;2023-04-08T15:38:35;12.50;99.90
13754;DHT22;6948;51.216;6.778;2023-04-08T15:41:02;12.50;99.90
13754;DHT22;6948;51.216;6.778;2023-04-08T15:43:28;12.30;99.90
13754;DHT22;6948;51.216;6.778;2023-04-08T15:45:54;12.30;99.90
13754;DHT22;6948;51.216;6.778;2023-04-08T15:48:20;12.30;99.90
13754;DHT22;6948;51.216;6.778;2023-04-08T15:50:45;12.20;99.90
13754;DHT22;6948;51.216;6.778;2023-04-08T15:53:11;12.10;99.90
13754;DHT22;6948;51.216;6.778;2023-04-08T15:55:38;12.20;99.90
13754;DHT22;6948;51.216;6.778;2023-04-08T15:58:04;12.20;99.90
13754;DHT22;6948;51.216;6.778;2023-04-08T16:00:30;12.10;99.90
13754;DHT22;6948;51.216;6.778;2023-04-08T16:02:56;11.90;99.90
13754;DHT22;6948;51.216;6.778;2023-04-08T16:05:21;12.00;99.90
13754;DHT22;6948;51.216;6.778;2023-04-08T16:07:47;12.10;99.90
13754;DHT22;6948;51.216;6.778;2023-04-08T16:10:13;12.10;99.90
13754;DHT22;6948;51.216;6.778;2023-04-08T16:12:39;12.10;99.90
13754;DHT22;6948;51.216;6.778;2023-04-08T16:15:05;12.20;99.90